sensor_id;sensor_type;location;lat;lon;timestamp;pressure;altitude;pressure_sealevel;temperature;humidity
63907;BME280;50075;49.484;11.238;2022-11-12T00:00:49;99557.19;;;11.02;100.00
63907;BME280;50075;49.484;11.238;2022-11-12T00:03:14;99547.50;;;11.08;100.00
63907;BME280;50075;49.484;11.238;2022-11-12T00:05:40;99543.78;;;11.20;100.00
63907;BME280;50075;49.484;11.238;2022-11-12T00:08:05;99549.09;;;11.59;100.00
63907;BME280;50075;49.484;11.238;2022-11-12T00:10:31;99539.69;;;11.50;100.00
63907;BME280;50075;49.484;11.238;2022-11-12T00:12:56;99538.81;;;11.51;100.00
63907;BME280;50075;49.484;11.238;2022-11-12T00:15:22;99543.72;;;11.23;100.00
63907;BME280;50075;49.484;11.238;2022-11-12T00:17:47;99543.22;;;11.03;100.00
63907;BME280;50075;49.484;11.238;2022-11-12T00:20:13;99549.16;;;11.12;100.00
63907;BME280;50075;49.484;11.238;2022-11-12T00:22:38;99544.94;;;11.05;100.00
63907;BME280;50075;49.484;11.238;2022-11-12T00:25:04;99555.81;;;11.29;100.00
63907;BME280;50075;49.484;11.238;2022-11-12T00:27:31;99545.81;;;11.51;100.00
63907;BME280;50075;49.484;11.238;2022-11-12T00:29:57;99546.09;;;11.35;100.00
63907;BME280;50075;49.484;11.238;2022-11-12T00:32:22;99533.56;;;11.53;100.00
63907;BME280;50075;49.484;11.238;2022-11-12T00:34:48;99540.59;;;11.51;100.00
63907;BME280;50075;49.484;11.238;2022-11-12T00:37:13;99541.16;;;11.20;100.00
63907;BME280;50075;49.484;11.238;2022-11-12T00:39:38;99537.38;;;11.36;100.00
63907;BME280;50075;49.484;11.238;2022-11-12T00:42:03;99536.69;;;11.70;100.00
63907;BME280;50075;49.484;11.238;2022-11-12T00:44:29;99529.56;;;11.35;100.00
63907;BME280;50075;49.484;11.238;2022-11-12T00:46:55;99538.88;;;11.92;100.00
63907;BME280;50075;49.484;11.238;2022-11-12T00:49:21;99532.03;;;11.85;100.00
63907;BME280;50075;49.484;11.238;2022-11-12T00:51:46;99528.22;;;12.01;100.00
63907;BME280;50075;49.484;11.238;2022-11-12T00:54:11;99528.63;;;11.37;100.00
63907;BME280;50075;49.484;11.238;2022-11-12T00:56:37;99527.66;;;10.98;100.00
63907;BME280;50075;49.484;11.238;2022-11-12T00:59:02;99524.94;;;11.49;100.00
63907;BME280;50075;49.484;11.238;2022-11-12T01:01:28;99522.38;;;11.01;100.00
63907;BME280;50075;49.484;11.238;2022-11-12T01:03:53;99518.06;;;11.44;100.00
63907;BME280;50075;49.484;11.238;2022-11-12T01:06:22;99519.72;;;11.48;100.00
63907;BME280;50075;49.484;11.238;2022-11-12T01:08:48;99517.94;;;11.50;100.00
63907;BME280;50075;49.484;11.238;2022-11-12T01:11:23;99519.88;;;11.42;100.00
63907;BME280;50075;49.484;11.238;2022-11-12T01:14:03;99521.47;;;11.49;100.00
63907;BME280;50075;49.484;11.238;2022-11-12T01:16:33;99522.50;;;11.82;100.00
63907;BME280;50075;49.484;11.238;2022-11-12T01:19:00;99510.03;;;11.53;100.00
63907;BME280;50075;49.484;11.238;2022-11-12T01:21:28;99522.91;;;11.62;100.00
63907;BME280;50075;49.484;11.238;2022-11-12T01:23:56;99518.81;;;11.92;100.00
63907;BME280;50075;49.484;11.238;2022-11-12T01:26:21;99517.97;;;11.89;100.00
63907;BME280;50075;49.484;11.238;2022-11-12T01:28:47;99503.78;;;11.62;100.00
63907;BME280;50075;49.484;11.238;2022-11-12T01:31:26;99507.00;;;11.31;100.00
63907;BME280;50075;49.484;11.238;2022-11-12T01:33:54;99501.66;;;11.77;100.00
63907;BME280;50075;49.484;11.238;2022-11-12T01:36:20;99503.72;;;11.63;100.00
63907;BME280;50075;49.484;11.238;2022-11-12T01:38:47;99504.78;;;11.11;100.00
63907;BME280;50075;49.484;11.238;2022-11-12T01:41:19;99500.06;;;11.28;100.00
63907;BME280;50075;49.484;11.238;2022-11-12T01:43:45;99488.22;;;11.96;100.00
63907;BME280;50075;49.484;11.238;2022-11-12T01:46:18;99491.63;;;11.59;100.00
63907;BME280;50075;49.484;11.238;2022-11-12T01:48:52;99493.66;;;11.45;100.00
63907;BME280;50075;49.484;11.238;2022-11-12T01:51:22;99495.16;;;11.99;100.00
63907;BME280;50075;49.484;11.238;2022-11-12T01:53:53;99496.44;;;11.77;100.00
63907;BME280;50075;49.484;11.238;2022-11-12T01:56:22;99502.25;;;11.92;100.00
63907;BME280;50075;49.484;11.238;2022-11-12T01:58:53;99490.63;;;12.05;100.00
63907;BME280;50075;49.484;11.238;2022-11-12T02:01:19;99492.75;;;11.88;100.00
63907;BME280;50075;49.484;11.238;2022-11-12T02:03:45;99493.63;;;11.87;100.00
63907;BME280;50075;49.484;11.238;2022-11-12T02:06:13;99490.97;;;11.90;100.00
63907;BME280;50075;49.484;11.238;2022-11-12T02:08:38;99481.06;;;12.04;100.00
63907;BME280;50075;49.484;11.238;2022-11-12T02:11:19;99486.06;;;12.15;100.00
63907;BME280;50075;49.484;11.238;2022-11-12T02:13:46;99480.09;;;12.08;100.00
63907;BME280;50075;49.484;11.238;2022-11-12T02:16:37;99486.69;;;11.86;100.00
63907;BME280;50075;49.484;11.238;2022-11-12T02:19:05;99488.97;;;11.61;100.00
63907;BME280;50075;49.484;11.238;2022-11-12T02:21:31;99494.75;;;11.76;100.00
63907;BME280;50075;49.484;11.238;2022-11-12T02:26:22;99492.97;;;11.77;100.00
63907;BME280;50075;49.484;11.238;2022-11-12T02:28:48;99487.03;;;11.69;100.00
63907;BME280;50075;49.484;11.238;2022-11-12T02:31:13;99493.00;;;11.75;100.00
63907;BME280;50075;49.484;11.238;2022-11-12T02:33:38;99485.47;;;11.62;100.00
63907;BME280;50075;49.484;11.238;2022-11-12T02:36:04;99479.75;;;11.43;100.00
63907;BME280;50075;49.484;11.238;2022-11-12T02:38:29;99480.47;;;11.93;100.00
63907;BME280;50075;49.484;11.238;2022-11-12T02:40:54;99478.75;;;11.89;100.00
63907;BME280;50075;49.484;11.238;2022-11-12T02:43:20;99478.50;;;11.62;100.00
63907;BME280;50075;49.484;11.238;2022-11-12T02:45:45;99480.47;;;11.93;100.00
63907;BME280;50075;49.484;11.238;2022-11-12T02:48:10;99483.38;;;11.35;100.00
63907;BME280;50075;49.484;11.238;2022-11-12T02:50:36;99483.47;;;11.74;100.00
63907;BME280;50075;49.484;11.238;2022-11-12T02:53:01;99477.72;;;11.57;100.00
63907;BME280;50075;49.484;11.238;2022-11-12T02:55:26;99480.13;;;11.66;100.00
63907;BME280;50075;49.484;11.238;2022-11-12T02:57:56;99480.97;;;11.68;100.00
63907;BME280;50075;49.484;11.238;2022-11-12T03:00:21;99478.31;;;11.70;100.00
63907;BME280;50075;49.484;11.238;2022-11-12T03:02:47;99485.06;;;11.80;100.00
63907;BME280;50075;49.484;11.238;2022-11-12T03:05:24;99478.16;;;11.76;100.00
63907;BME280;50075;49.484;11.238;2022-11-12T03:07:49;99484.16;;;11.81;100.00
63907;BME280;50075;49.484;11.238;2022-11-12T03:10:15;99488.31;;;11.07;100.00
63907;BME280;50075;49.484;11.238;2022-11-12T03:12:40;99489.09;;;11.97;100.00
63907;BME280;50075;49.484;11.238;2022-11-12T03:15:05;99488.69;;;12.13;100.00
63907;BME280;50075;49.484;11.238;2022-11-12T03:17:33;99488.38;;;11.48;100.00
63907;BME280;50075;49.484;11.238;2022-11-12T03:19:59;99493.09;;;11.30;100.00
63907;BME280;50075;49.484;11.238;2022-11-12T03:22:24;99485.25;;;11.30;100.00
63907;BME280;50075;49.484;11.238;2022-11-12T03:24:49;99495.34;;;11.49;100.00
63907;BME280;50075;49.484;11.238;2022-11-12T03:27:15;99488.13;;;11.60;100.00
63907;BME280;50075;49.484;11.238;2022-11-12T03:29:40;99494.38;;;11.53;100.00
63907;BME280;50075;49.484;11.238;2022-11-12T03:32:05;99492.19;;;11.31;100.00
63907;BME280;50075;49.484;11.238;2022-11-12T03:34:31;99492.72;;;11.49;100.00
63907;BME280;50075;49.484;11.238;2022-11-12T03:36:56;99490.72;;;11.60;100.00
63907;BME280;50075;49.484;11.238;2022-11-12T03:39:21;99487.56;;;11.44;100.00
63907;BME280;50075;49.484;11.238;2022-11-12T03:41:47;99499.88;;;11.39;100.00
63907;BME280;50075;49.484;11.238;2022-11-12T03:44:12;99497.28;;;11.78;100.00
63907;BME280;50075;49.484;11.238;2022-11-12T03:46:37;99493.53;;;11.51;100.00
63907;BME280;50075;49.484;11.238;2022-11-12T03:49:02;99492.72;;;11.49;100.00
63907;BME280;50075;49.484;11.238;2022-11-12T03:51:28;99492.56;;;11.55;100.00
63907;BME280;50075;49.484;11.238;2022-11-12T03:53:53;99494.22;;;11.59;100.00
63907;BME280;50075;49.484;11.238;2022-11-12T03:56:18;99501.88;;;11.68;100.00
63907;BME280;50075;49.484;11.238;2022-11-12T03:58:44;99498.13;;;10.94;100.00
63907;BME280;50075;49.484;11.238;2022-11-12T04:01:09;99499.94;;;10.91;100.00
63907;BME280;50075;49.484;11.238;2022-11-12T04:03:34;99498.50;;;10.73;100.00
63907;BME280;50075;49.484;11.238;2022-11-12T04:06:00;99498.00;;;10.52;100.00
63907;BME280;50075;49.484;11.238;2022-11-12T04:08:44;99500.69;;;10.97;100.00
63907;BME280;50075;49.484;11.238;2022-11-12T04:11:11;99507.44;;;10.59;100.00
63907;BME280;50075;49.484;11.238;2022-11-12T04:13:38;99504.16;;;10.48;100.00
63907;BME280;50075;49.484;11.238;2022-11-12T04:16:13;99495.25;;;10.58;100.00
63907;BME280;50075;49.484;11.238;2022-11-12T04:18:59;99490.53;;;10.80;100.00
63907;BME280;50075;49.484;11.238;2022-11-12T04:21:44;99504.38;;;10.84;100.00
63907;BME280;50075;49.484;11.238;2022-11-12T04:24:18;99508.84;;;10.79;100.00
63907;BME280;50075;49.484;11.238;2022-11-12T04:27:03;99505.66;;;10.63;100.00
63907;BME280;50075;49.484;11.238;2022-11-12T04:29:29;99509.44;;;10.93;100.00
63907;BME280;50075;49.484;11.238;2022-11-12T04:32:13;99512.19;;;10.87;100.00
63907;BME280;50075;49.484;11.238;2022-11-12T04:34:39;99507.72;;;10.94;100.00
63907;BME280;50075;49.484;11.238;2022-11-12T04:37:05;99502.91;;;10.71;100.00
63907;BME280;50075;49.484;11.238;2022-11-12T04:39:30;99502.81;;;10.19;100.00
63907;BME280;50075;49.484;11.238;2022-11-12T04:41:56;99506.16;;;10.29;100.00
63907;BME280;50075;49.484;11.238;2022-11-12T04:44:48;99509.03;;;10.70;100.00
63907;BME280;50075;49.484;11.238;2022-11-12T04:47:46;99500.25;;;10.74;100.00
63907;BME280;50075;49.484;11.238;2022-11-12T04:50:16;99505.28;;;10.30;100.00
63907;BME280;50075;49.484;11.238;2022-11-12T04:52:42;99511.31;;;10.37;100.00
63907;BME280;50075;49.484;11.238;2022-11-12T04:55:09;99512.97;;;10.41;100.00
63907;BME280;50075;49.484;11.238;2022-11-12T04:57:35;99511.38;;;10.31;100.00
63907;BME280;50075;49.484;11.238;2022-11-12T05:00:02;99510.94;;;9.99;100.00
63907;BME280;50075;49.484;11.238;2022-11-12T05:02:27;99503.63;;;10.25;100.00
63907;BME280;50075;49.484;11.238;2022-11-12T05:04:52;99501.88;;;10.23;100.00
63907;BME280;50075;49.484;11.238;2022-11-12T05:07:18;99502.53;;;10.92;100.00
63907;BME280;50075;49.484;11.238;2022-11-12T05:09:43;99502.34;;;10.53;100.00
63907;BME280;50075;49.484;11.238;2022-11-12T05:12:09;99503.63;;;10.79;100.00
63907;BME280;50075;49.484;11.238;2022-11-12T05:14:34;99503.19;;;11.02;100.00
63907;BME280;50075;49.484;11.238;2022-11-12T05:17:00;99491.88;;;11.03;100.00
63907;BME280;50075;49.484;11.238;2022-11-12T05:19:26;99503.25;;;10.99;100.00
63907;BME280;50075;49.484;11.238;2022-11-12T05:21:51;99505.09;;;10.95;100.00
63907;BME280;50075;49.484;11.238;2022-11-12T05:27:04;99497.34;;;11.34;100.00
63907;BME280;50075;49.484;11.238;2022-11-12T05:29:29;99496.34;;;11.42;100.00
63907;BME280;50075;49.484;11.238;2022-11-12T05:31:54;99495.78;;;11.68;100.00
63907;BME280;50075;49.484;11.238;2022-11-12T05:34:20;99495.84;;;11.21;100.00
63907;BME280;50075;49.484;11.238;2022-11-12T05:36:45;99491.56;;;11.62;100.00
63907;BME280;50075;49.484;11.238;2022-11-12T05:39:10;99487.41;;;11.52;100.00
63907;BME280;50075;49.484;11.238;2022-11-12T05:41:36;99492.06;;;10.92;100.00
63907;BME280;50075;49.484;11.238;2022-11-12T05:44:01;99492.00;;;11.41;100.00
63907;BME280;50075;49.484;11.238;2022-11-12T05:46:27;99499.38;;;11.20;100.00
63907;BME280;50075;49.484;11.238;2022-11-12T05:48:52;99503.34;;;10.94;100.00
63907;BME280;50075;49.484;11.238;2022-11-12T05:51:17;99506.66;;;11.03;100.00
63907;BME280;50075;49.484;11.238;2022-11-12T05:53:43;99514.81;;;11.32;100.00
63907;BME280;50075;49.484;11.238;2022-11-12T05:56:09;99516.44;;;11.40;100.00
63907;BME280;50075;49.484;11.238;2022-11-12T05:58:36;99504.75;;;10.64;100.00
63907;BME280;50075;49.484;11.238;2022-11-12T06:01:02;99509.88;;;11.61;100.00
63907;BME280;50075;49.484;11.238;2022-11-12T06:03:28;99515.63;;;10.89;100.00
63907;BME280;50075;49.484;11.238;2022-11-12T06:05:53;99515.13;;;11.59;100.00
63907;BME280;50075;49.484;11.238;2022-11-12T06:08:19;99518.09;;;10.97;100.00
63907;BME280;50075;49.484;11.238;2022-11-12T06:10:48;99512.91;;;11.81;100.00
63907;BME280;50075;49.484;11.238;2022-11-12T06:13:14;99514.56;;;11.45;100.00
63907;BME280;50075;49.484;11.238;2022-11-12T06:15:39;99512.81;;;10.50;100.00
63907;BME280;50075;49.484;11.238;2022-11-12T06:18:05;99520.78;;;11.37;100.00
63907;BME280;50075;49.484;11.238;2022-11-12T06:20:30;99522.22;;;11.09;100.00
63907;BME280;50075;49.484;11.238;2022-11-12T06:22:56;99516.94;;;11.98;100.00
63907;BME280;50075;49.484;11.238;2022-11-12T06:25:21;99515.88;;;10.75;100.00
63907;BME280;50075;49.484;11.238;2022-11-12T06:27:47;99521.47;;;10.52;100.00
63907;BME280;50075;49.484;11.238;2022-11-12T06:30:13;99523.84;;;11.16;100.00
63907;BME280;50075;49.484;11.238;2022-11-12T06:32:38;99520.41;;;11.14;100.00
63907;BME280;50075;49.484;11.238;2022-11-12T06:35:04;99522.41;;;10.99;100.00
63907;BME280;50075;49.484;11.238;2022-11-12T06:37:30;99524.19;;;10.97;100.00
63907;BME280;50075;49.484;11.238;2022-11-12T06:39:55;99522.97;;;11.15;100.00
63907;BME280;50075;49.484;11.238;2022-11-12T06:42:21;99532.44;;;10.15;100.00
63907;BME280;50075;49.484;11.238;2022-11-12T06:44:46;99531.34;;;11.33;100.00
63907;BME280;50075;49.484;11.238;2022-11-12T06:47:11;99535.47;;;10.48;100.00
63907;BME280;50075;49.484;11.238;2022-11-12T06:49:37;99538.28;;;10.87;100.00
63907;BME280;50075;49.484;11.238;2022-11-12T06:52:02;99536.03;;;10.66;100.00
63907;BME280;50075;49.484;11.238;2022-11-12T06:54:28;99538.31;;;10.86;100.00
63907;BME280;50075;49.484;11.238;2022-11-12T06:56:53;99538.13;;;10.96;100.00
63907;BME280;50075;49.484;11.238;2022-11-12T06:59:18;99540.44;;;11.12;100.00
63907;BME280;50075;49.484;11.238;2022-11-12T07:01:44;99543.50;;;10.34;100.00
63907;BME280;50075;49.484;11.238;2022-11-12T07:04:09;99541.69;;;10.92;100.00
63907;BME280;50075;49.484;11.238;2022-11-12T07:06:35;99533.88;;;10.91;100.00
63907;BME280;50075;49.484;11.238;2022-11-12T07:09:04;99547.25;;;11.66;100.00
63907;BME280;50075;49.484;11.238;2022-11-12T07:11:30;99551.69;;;10.08;100.00
63907;BME280;50075;49.484;11.238;2022-11-12T07:13:55;99550.22;;;10.49;100.00
63907;BME280;50075;49.484;11.238;2022-11-12T07:16:21;99549.97;;;11.60;100.00
63907;BME280;50075;49.484;11.238;2022-11-12T07:18:47;99551.75;;;12.01;100.00
63907;BME280;50075;49.484;11.238;2022-11-12T07:21:18;99552.63;;;11.58;100.00
63907;BME280;50075;49.484;11.238;2022-11-12T07:23:43;99547.53;;;12.33;100.00
63907;BME280;50075;49.484;11.238;2022-11-12T07:26:20;99551.00;;;11.94;100.00
63907;BME280;50075;49.484;11.238;2022-11-12T07:28:47;99549.13;;;12.76;100.00
63907;BME280;50075;49.484;11.238;2022-11-12T07:31:16;99553.09;;;12.55;100.00
63907;BME280;50075;49.484;11.238;2022-11-12T07:33:42;99544.44;;;12.53;100.00
63907;BME280;50075;49.484;11.238;2022-11-12T07:36:09;99551.16;;;12.27;100.00
63907;BME280;50075;49.484;11.238;2022-11-12T07:38:37;99552.25;;;12.90;100.00
63907;BME280;50075;49.484;11.238;2022-11-12T07:41:05;99545.00;;;12.66;100.00
63907;BME280;50075;49.484;11.238;2022-11-12T07:43:32;99544.06;;;13.03;100.00
63907;BME280;50075;49.484;11.238;2022-11-12T07:46:09;99552.13;;;12.95;100.00
63907;BME280;50075;49.484;11.238;2022-11-12T07:48:35;99545.44;;;12.10;100.00
63907;BME280;50075;49.484;11.238;2022-11-12T07:51:02;99538.19;;;12.59;100.00
63907;BME280;50075;49.484;11.238;2022-11-12T07:53:28;99542.13;;;11.16;100.00
63907;BME280;50075;49.484;11.238;2022-11-12T07:55:56;99536.78;;;10.74;100.00
63907;BME280;50075;49.484;11.238;2022-11-12T07:58:22;99534.78;;;12.19;100.00
63907;BME280;50075;49.484;11.238;2022-11-12T08:00:49;99535.22;;;10.62;100.00
63907;BME280;50075;49.484;11.238;2022-11-12T08:03:14;99533.75;;;12.62;100.00
63907;BME280;50075;49.484;11.238;2022-11-12T08:05:40;99544.06;;;13.03;100.00
63907;BME280;50075;49.484;11.238;2022-11-12T08:08:05;99540.84;;;12.91;100.00
63907;BME280;50075;49.484;11.238;2022-11-12T08:10:30;99537.75;;;13.10;100.00
63907;BME280;50075;49.484;11.238;2022-11-12T08:12:55;99544.38;;;13.56;100.00
63907;BME280;50075;49.484;11.238;2022-11-12T08:15:21;99549.47;;;12.97;100.00
63907;BME280;50075;49.484;11.238;2022-11-12T08:17:46;99541.94;;;12.83;100.00
63907;BME280;50075;49.484;11.238;2022-11-12T08:20:12;99544.28;;;13.89;100.00
63907;BME280;50075;49.484;11.238;2022-11-12T08:22:37;99556.69;;;14.14;100.00
63907;BME280;50075;49.484;11.238;2022-11-12T08:25:03;99550.53;;;14.15;100.00
63907;BME280;50075;49.484;11.238;2022-11-12T08:27:28;99550.34;;;13.91;100.00
63907;BME280;50075;49.484;11.238;2022-11-12T08:29:53;99555.41;;;14.27;100.00
63907;BME280;50075;49.484;11.238;2022-11-12T08:32:19;99549.03;;;14.62;100.00
63907;BME280;50075;49.484;11.238;2022-11-12T08:34:44;99548.50;;;13.34;100.00
63907;BME280;50075;49.484;11.238;2022-11-12T08:37:09;99551.44;;;13.54;100.00
63907;BME280;50075;49.484;11.238;2022-11-12T08:39:35;99558.59;;;13.15;100.00
63907;BME280;50075;49.484;11.238;2022-11-12T08:42:00;99558.66;;;15.15;100.00
63907;BME280;50075;49.484;11.238;2022-11-12T08:44:25;99542.81;;;14.37;100.00
63907;BME280;50075;49.484;11.238;2022-11-12T08:46:51;99553.06;;;14.44;100.00
63907;BME280;50075;49.484;11.238;2022-11-12T08:49:16;99550.28;;;14.22;100.00
63907;BME280;50075;49.484;11.238;2022-11-12T08:51:41;99550.22;;;13.66;100.00
63907;BME280;50075;49.484;11.238;2022-11-12T08:54:07;99547.16;;;15.43;100.00
63907;BME280;50075;49.484;11.238;2022-11-12T08:56:32;99546.94;;;15.73;100.00
63907;BME280;50075;49.484;11.238;2022-11-12T08:58:58;99550.91;;;14.86;100.00
63907;BME280;50075;49.484;11.238;2022-11-12T09:01:24;99544.41;;;16.17;100.00
63907;BME280;50075;49.484;11.238;2022-11-12T09:03:49;99543.44;;;15.00;100.00
63907;BME280;50075;49.484;11.238;2022-11-12T09:06:14;99545.78;;;15.56;100.00
63907;BME280;50075;49.484;11.238;2022-11-12T09:08:40;99538.03;;;15.28;100.00
63907;BME280;50075;49.484;11.238;2022-11-12T09:11:05;99537.94;;;15.06;100.00
63907;BME280;50075;49.484;11.238;2022-11-12T09:13:31;99532.31;;;14.92;100.00
63907;BME280;50075;49.484;11.238;2022-11-12T09:16:01;99535.34;;;15.78;100.00
63907;BME280;50075;49.484;11.238;2022-11-12T09:18:27;99532.81;;;15.77;100.00
63907;BME280;50075;49.484;11.238;2022-11-12T09:20:53;99533.84;;;15.95;100.00
63907;BME280;50075;49.484;11.238;2022-11-12T09:23:18;99536.97;;;15.34;100.00
63907;BME280;50075;49.484;11.238;2022-11-12T09:25:43;99527.06;;;16.33;100.00
63907;BME280;50075;49.484;11.238;2022-11-12T09:28:14;99535.56;;;16.62;100.00
63907;BME280;50075;49.484;11.238;2022-11-12T09:30:43;99540.28;;;16.10;100.00
63907;BME280;50075;49.484;11.238;2022-11-12T09:33:10;99533.88;;;15.22;100.00
63907;BME280;50075;49.484;11.238;2022-11-12T09:35:36;99535.59;;;16.18;100.00
63907;BME280;50075;49.484;11.238;2022-11-12T09:38:01;99535.53;;;15.74;100.00
63907;BME280;50075;49.484;11.238;2022-11-12T09:41:21;99535.13;;;16.30;100.00
63907;BME280;50075;49.484;11.238;2022-11-12T09:43:31;99535.88;;;17.38;100.00
63907;BME280;50075;49.484;11.238;2022-11-12T09:46:07;99532.50;;;16.73;100.00
63907;BME280;50075;49.484;11.238;2022-11-12T09:48:40;99530.72;;;15.36;100.00
63907;BME280;50075;49.484;11.238;2022-11-12T09:51:27;99530.84;;;17.13;100.00
63907;BME280;50075;49.484;11.238;2022-11-12T09:54:09;99533.34;;;16.73;100.00
63907;BME280;50075;49.484;11.238;2022-11-12T09:56:37;99528.47;;;17.46;100.00
63907;BME280;50075;49.484;11.238;2022-11-12T09:59:09;99519.69;;;16.86;100.00
63907;BME280;50075;49.484;11.238;2022-11-12T10:01:53;99527.28;;;17.33;100.00
63907;BME280;50075;49.484;11.238;2022-11-12T10:23:51;99505.56;;;18.05;100.00
63907;BME280;50075;49.484;11.238;2022-11-12T10:26:20;99498.97;;;17.57;100.00
63907;BME280;50075;49.484;11.238;2022-11-12T10:28:59;99502.53;;;18.13;100.00
63907;BME280;50075;49.484;11.238;2022-11-12T10:31:26;99503.88;;;18.58;100.00
63907;BME280;50075;49.484;11.238;2022-11-12T10:34:20;99491.25;;;17.52;100.00
63907;BME280;50075;49.484;11.238;2022-11-12T10:39:37;99485.03;;;16.95;100.00
63907;BME280;50075;49.484;11.238;2022-11-12T10:42:11;99489.97;;;18.18;100.00
63907;BME280;50075;49.484;11.238;2022-11-12T10:44:38;99477.59;;;17.44;100.00
63907;BME280;50075;49.484;11.238;2022-11-12T10:47:21;99476.50;;;18.77;100.00
63907;BME280;50075;49.484;11.238;2022-11-12T10:52:34;99478.13;;;18.08;100.00
63907;BME280;50075;49.484;11.238;2022-11-12T10:57:30;99464.13;;;17.11;100.00
63907;BME280;50075;49.484;11.238;2022-11-12T11:00:17;99471.69;;;18.50;100.00
63907;BME280;50075;49.484;11.238;2022-11-12T11:02:48;99465.06;;;18.76;100.00
63907;BME280;50075;49.484;11.238;2022-11-12T11:06:01;99460.22;;;18.32;100.00
63907;BME280;50075;49.484;11.238;2022-11-12T11:13:35;99447.44;;;18.59;100.00
63907;BME280;50075;49.484;11.238;2022-11-12T11:16:03;99447.63;;;19.40;100.00
63907;BME280;50075;49.484;11.238;2022-11-12T11:18:32;99447.44;;;19.27;100.00
63907;BME280;50075;49.484;11.238;2022-11-12T11:21:24;99454.41;;;18.78;100.00
63907;BME280;50075;49.484;11.238;2022-11-12T11:32:01;99452.94;;;19.56;100.00
63907;BME280;50075;49.484;11.238;2022-11-12T11:37:31;99447.22;;;20.12;99.28
63907;BME280;50075;49.484;11.238;2022-11-12T11:40:14;99446.44;;;20.56;95.84
63907;BME280;50075;49.484;11.238;2022-11-12T11:53:51;99422.03;;;19.07;100.00
63907;BME280;50075;49.484;11.238;2022-11-12T11:56:25;99412.56;;;19.84;100.00
63907;BME280;50075;49.484;11.238;2022-11-12T12:04:16;99410.13;;;20.72;90.29
63907;BME280;50075;49.484;11.238;2022-11-12T12:07:03;99399.16;;;21.07;100.00
63907;BME280;50075;49.484;11.238;2022-11-12T12:12:47;99411.97;;;22.65;100.00
63907;BME280;50075;49.484;11.238;2022-11-12T12:20:39;99394.44;;;21.27;91.28
63907;BME280;50075;49.484;11.238;2022-11-12T12:23:13;99392.00;;;21.92;85.79
63907;BME280;50075;49.484;11.238;2022-11-12T12:25:45;99386.94;;;22.02;82.11
63907;BME280;50075;49.484;11.238;2022-11-12T12:30:53;99384.22;;;20.92;83.34
63907;BME280;50075;49.484;11.238;2022-11-12T12:35:57;99377.97;;;21.63;78.99
63907;BME280;50075;49.484;11.238;2022-11-12T12:38:31;99374.00;;;22.10;79.54
63907;BME280;50075;49.484;11.238;2022-11-12T12:44:05;99364.94;;;21.31;82.33
63907;BME280;50075;49.484;11.238;2022-11-12T12:46:38;99365.97;;;21.98;76.48
63907;BME280;50075;49.484;11.238;2022-11-12T12:49:06;99365.13;;;21.28;75.17
63907;BME280;50075;49.484;11.238;2022-11-12T12:51:35;99359.69;;;21.44;76.12
63907;BME280;50075;49.484;11.238;2022-11-12T12:54:00;99360.19;;;21.22;74.39
63907;BME280;50075;49.484;11.238;2022-11-12T12:58:57;99356.06;;;21.87;73.99
63907;BME280;50075;49.484;11.238;2022-11-12T13:01:30;99350.81;;;21.31;72.68
63907;BME280;50075;49.484;11.238;2022-11-12T13:04:01;99353.47;;;21.72;70.70
63907;BME280;50075;49.484;11.238;2022-11-12T13:06:31;99355.38;;;22.76;70.82
63907;BME280;50075;49.484;11.238;2022-11-12T13:19:44;99345.28;;;23.44;71.96
63907;BME280;50075;49.484;11.238;2022-11-12T13:40:14;99351.72;;;23.03;70.55
63907;BME280;50075;49.484;11.238;2022-11-12T13:42:40;99347.31;;;22.52;72.71
63907;BME280;50075;49.484;11.238;2022-11-12T13:45:12;99341.09;;;22.77;70.84
63907;BME280;50075;49.484;11.238;2022-11-12T13:47:38;99339.78;;;22.19;72.29
63907;BME280;50075;49.484;11.238;2022-11-12T13:50:07;99339.78;;;22.19;74.58
63907;BME280;50075;49.484;11.238;2022-11-12T13:52:34;99347.50;;;22.49;73.83
63907;BME280;50075;49.484;11.238;2022-11-12T13:55:02;99339.00;;;21.91;74.83
63907;BME280;50075;49.484;11.238;2022-11-12T13:57:31;99344.19;;;21.92;75.14
63907;BME280;50075;49.484;11.238;2022-11-12T14:02:46;99341.19;;;21.57;78.87
63907;BME280;50075;49.484;11.238;2022-11-12T14:05:15;99344.00;;;21.68;77.63
63907;BME280;50075;49.484;11.238;2022-11-12T14:18:11;99345.34;;;21.88;78.69
63907;BME280;50075;49.484;11.238;2022-11-12T14:20:40;99334.34;;;21.67;78.70
63907;BME280;50075;49.484;11.238;2022-11-12T14:23:17;99339.91;;;21.77;84.75
63907;BME280;50075;49.484;11.238;2022-11-12T14:25:54;99337.41;;;22.01;81.53
63907;BME280;50075;49.484;11.238;2022-11-12T14:28:32;99339.63;;;22.60;83.91
63907;BME280;50075;49.484;11.238;2022-11-12T14:30:59;99334.34;;;21.67;80.47
63907;BME280;50075;49.484;11.238;2022-11-12T14:33:27;99328.53;;;22.15;82.56
63907;BME280;50075;49.484;11.238;2022-11-12T14:35:54;99331.34;;;21.99;82.46
63907;BME280;50075;49.484;11.238;2022-11-12T14:38:28;99328.19;;;22.20;80.50
63907;BME280;50075;49.484;11.238;2022-11-12T14:40:57;99326.72;;;21.75;86.05
63907;BME280;50075;49.484;11.238;2022-11-12T14:43:43;99318.09;;;22.12;81.61
63907;BME280;50075;49.484;11.238;2022-11-12T14:46:51;99321.38;;;22.03;81.03
63907;BME280;50075;49.484;11.238;2022-11-12T14:51:49;99312.53;;;21.62;83.45
63907;BME280;50075;49.484;11.238;2022-11-12T14:54:32;99310.75;;;21.21;85.15
63907;BME280;50075;49.484;11.238;2022-11-12T14:57:01;99315.34;;;20.76;86.77